Time;durP1;ratioP1;P1;durP2;ratioP2;P2;SDS_P1;SDS_P2;PMS_P1;PMS_P2;Temp;Humidity;BMP_temperature;BMP_pressure;BME280_temperature;BME280_humidity;BME280_pressure;Samples;Min_cycle;Max_cycle;Signal;HPM_P1;HPM_P2
2023/07/24 00:01:06;;;;;;;5.40;3.17;;;;;;;23.58;48.71;93055.28;5045521;28;20397;-92
2023/07/24 00:03:32;;;;;;;3.90;2.70;;;;;;;23.59;48.55;93053.25;5059438;28;20033;-90
2023/07/24 00:05:59;;;;;;;3.75;2.47;;;;;;;23.59;48.75;93056.00;5057886;28;20044;-91
2023/07/24 00:08:25;;;;;;;4.30;2.70;;;;;;;23.60;48.86;93049.19;5075226;28;20052;-92
2023/07/24 00:10:50;;;;;;;6.72;3.25;;;;;;;23.60;48.81;93051.22;5054459;28;20040;-92
2023/07/24 00:13:15;;;;;;;3.78;2.53;;;;;;;23.60;48.73;93049.19;5052242;28;20036;-92
2023/07/24 00:15:41;;;;;;;3.58;2.25;;;;;;;23.60;48.66;93040.19;5017489;28;20057;-91
2023/07/24 00:18:06;;;;;;;4.10;2.40;;;;;;;23.60;48.62;93040.91;5035272;28;20045;-92
2023/07/24 00:20:33;;;;;;;4.53;2.83;;;;;;;23.60;48.58;93034.69;5049330;28;20037;-91
2023/07/24 00:22:59;;;;;;;3.75;2.60;;;;;;;23.59;48.57;93039.47;5056874;28;20028;-91
2023/07/24 00:25:25;;;;;;;3.55;2.85;;;;;;;23.58;48.63;93038.72;5048866;28;20120;-91
2023/07/24 00:27:50;;;;;;;3.28;2.40;;;;;;;23.58;48.74;93026.94;5052926;28;20043;-92
2023/07/24 00:30:16;;;;;;;5.53;3.20;;;;;;;23.58;48.75;93032.47;5050631;28;20033;-91
2023/07/24 00:32:41;;;;;;;4.95;2.38;;;;;;;23.59;48.87;93022.91;5056498;28;20121;-91
2023/07/24 00:35:07;;;;;;;4.18;2.60;;;;;;;23.59;48.75;93022.91;5038602;28;20526;-91
2023/07/24 00:37:34;;;;;;;5.78;3.05;;;;;;;23.58;48.65;93032.47;5036916;28;20447;-91
2023/07/24 00:39:59;;;;;;;4.55;2.25;;;;;;;23.56;48.80;93016.47;5029097;28;20582;-92
2023/07/24 00:42:25;;;;;;;3.88;2.30;;;;;;;23.58;48.62;93015.91;5052990;28;20052;-91
2023/07/24 00:44:51;;;;;;;4.40;2.63;;;;;;;23.58;48.66;93013.88;5017181;28;20563;-91
2023/07/24 00:47:17;;;;;;;3.70;2.47;;;;;;;23.57;48.83;93004.13;5035003;28;20060;-92
2023/07/24 00:49:42;;;;;;;8.45;2.65;;;;;;;23.56;48.74;93010.94;5029216;28;20087;-92
2023/07/24 00:52:08;;;;;;;3.47;2.17;;;;;;;23.57;48.88;93003.41;5068257;28;20032;-91
2023/07/24 00:54:33;;;;;;;4.57;2.13;;;;;;;23.57;48.74;93011.69;5036940;28;20048;-91
2023/07/24 00:57:00;;;;;;;3.90;2.63;;;;;;;23.57;48.89;93003.41;5036119;28;20041;-91
2023/07/24 00:59:26;;;;;;;3.03;2.45;;;;;;;23.57;48.73;92995.84;5032003;28;20075;-92
2023/07/24 01:01:53;;;;;;;3.58;2.40;;;;;;;23.56;48.80;92996.41;5026492;28;20105;-89
2023/07/24 01:04:20;;;;;;;4.05;2.53;;;;;;;23.56;48.82;92999.91;5019204;28;20033;-92
2023/07/24 01:06:46;;;;;;;3.30;2.33;;;;;;;23.54;48.76;92991.44;5027746;28;20458;-92
2023/07/24 01:09:12;;;;;;;3.42;2.53;;;;;;;23.56;48.57;92985.38;5058688;28;20067;-91
2023/07/24 01:11:42;;;;;;;3.45;2.67;;;;;;;23.54;48.72;92985.19;5062682;28;20045;-91
2023/07/24 01:14:31;;;;;;;3.45;2.75;;;;;;;23.55;48.74;92979.13;5020850;28;20412;-90
2023/07/24 01:16:57;;;;;;;3.78;2.35;;;;;;;23.55;48.95;92983.91;5065551;28;20045;-91
2023/07/24 01:19:42;;;;;;;3.80;2.40;;;;;;;23.54;48.61;92982.44;5041350;28;20052;-91
2023/07/24 01:22:17;;;;;;;4.18;3.25;;;;;;;23.56;48.74;92979.84;5060565;28;20036;-92
2023/07/24 01:24:47;;;;;;;3.47;2.20;;;;;;;23.53;48.65;92969.94;5040437;28;20041;-91
2023/07/24 01:27:18;;;;;;;;;;;;;;;23.55;48.50;92972.88;5084834;28;20041;-92
2023/07/24 01:29:44;;;;;;;2.90;2.08;;;;;;;23.53;48.73;92965.16;5088073;28;20477;-91
2023/07/24 01:32:10;;;;;;;3.33;2.60;;;;;;;23.53;49.03;92964.41;5044308;28;20120;-91
2023/07/24 01:34:35;;;;;;;4.88;2.60;;;;;;;23.53;48.64;92956.13;5058904;28;20036;-91
2023/07/24 01:37:01;;;;;;;3.85;2.40;;;;;;;23.51;48.58;92958.69;5052345;28;20083;-93
2023/07/24 01:39:26;;;;;;;3.25;2.20;;;;;;;23.51;48.68;92947.66;5065236;28;20048;-93
2023/07/24 01:41:52;;;;;;;2.53;2.08;;;;;;;23.51;48.75;92953.16;5072000;28;20049;-92
2023/07/24 01:44:17;;;;;;;5.55;2.72;;;;;;;23.50;48.78;92949.66;5053251;28;20048;-92
2023/07/24 01:46:44;;;;;;;2.92;2.15;;;;;;;23.53;48.61;92945.09;5045525;28;20097;-92
2023/07/24 01:49:10;;;;;;;3.15;2.30;;;;;;;23.50;48.82;92946.19;5034371;28;20140;-91
2023/07/24 01:51:36;;;;;;;3.15;2.38;;;;;;;23.50;48.82;92951.69;5056130;28;20059;-92
2023/07/24 01:54:02;;;;;;;3.15;2.20;;;;;;;23.51;48.73;92953.91;5051757;28;20527;-91
2023/07/24 01:56:27;;;;;;;3.63;2.47;;;;;;;23.52;48.82;92944.38;5067536;28;20040;-91
2023/07/24 01:58:55;;;;;;;3.47;2.63;;;;;;;23.51;48.71;92942.88;5027606;28;20105;-91
2023/07/24 02:01:20;;;;;;;3.15;2.55;;;;;;;23.52;48.78;92938.09;5028954;28;20048;-92
2023/07/24 02:03:47;;;;;;;4.07;2.42;;;;;;;23.50;48.69;92935.13;5035752;28;20037;-92
2023/07/24 02:06:12;;;;;;;3.38;2.38;;;;;;;23.50;48.67;92935.88;5019908;28;20045;-92
2023/07/24 02:08:38;;;;;;;4.47;2.25;;;;;;;23.50;48.38;92935.13;5087568;28;20060;-91
2023/07/24 02:11:03;;;;;;;2.35;1.90;;;;;;;23.51;48.63;92939.38;5048490;28;20087;-91
2023/07/24 02:13:28;;;;;;;3.40;2.60;;;;;;;23.51;48.62;92933.84;5080658;28;20127;-91
2023/07/24 02:15:55;;;;;;;3.83;2.55;;;;;;;23.50;48.29;92933.13;5039703;28;20064;-91
2023/07/24 02:18:21;;;;;;;3.22;2.38;;;;;;;23.51;48.72;92933.84;5034455;28;20041;-91
2023/07/24 02:20:51;;;;;;;3.53;2.00;;;;;;;23.50;48.76;92937.91;5043955;28;20048;-91
2023/07/24 02:23:16;;;;;;;3.40;2.23;;;;;;;23.49;48.57;92928.16;5035027;28;20044;-91
2023/07/24 02:25:42;;;;;;;2.97;2.22;;;;;;;23.49;48.67;92928.88;5017521;28;20045;-92
2023/07/24 02:28:08;;;;;;;3.55;2.40;;;;;;;23.51;48.72;92928.34;5031307;28;20499;-92
2023/07/24 02:30:38;;;;;;;2.92;2.22;;;;;;;23.51;48.84;92933.84;5010277;28;20088;-91
2023/07/24 02:33:03;;;;;;;3.37;2.43;;;;;;;23.49;48.59;92920.63;5034464;28;20438;-90
2023/07/24 02:35:29;;;;;;;3.63;2.30;;;;;;;23.49;48.61;92922.63;5042161;28;20277;-92
2023/07/24 02:37:56;;;;;;;3.63;2.33;;;;;;;23.50;48.55;92926.88;5051361;28;20056;-92
2023/07/24 02:40:21;;;;;;;3.80;2.28;;;;;;;23.49;48.64;92928.16;5050710;28;20041;-90
2023/07/24 02:42:47;;;;;;;3.22;2.35;;;;;;;23.49;48.74;92926.13;5034685;28;20025;-91
2023/07/24 02:45:15;;;;;;;4.05;2.45;;;;;;;23.50;48.75;92924.09;5034149;28;20033;-91
2023/07/24 02:47:42;;;;;;;3.38;2.60;;;;;;;23.49;48.61;92917.84;5046452;28;20045;-92
2023/07/24 02:50:09;;;;;;;3.53;2.40;;;;;;;23.48;48.62;92915.66;5032723;28;20044;-91
2023/07/24 02:52:34;;;;;;;3.97;2.90;;;;;;;23.50;48.62;92913.06;5028753;28;20247;-93
2023/07/24 02:55:01;;;;;;;2.80;1.98;;;;;;;23.48;48.55;92910.88;5038703;28;20112;-91
2023/07/24 02:57:27;;;;;;;3.55;2.25;;;;;;;23.47;48.63;92911.41;5045919;28;20116;-90
2023/07/24 02:59:52;;;;;;;4.30;2.78;;;;;;;23.47;48.77;92901.13;5030689;28;20486;-90
2023/07/24 03:02:19;;;;;;;4.00;2.63;;;;;;;23.47;48.57;92906.63;5029504;28;20040;-91
2023/07/24 03:04:45;;;;;;;2.72;2.20;;;;;;;23.48;48.74;92899.09;5039848;28;20033;-91
2023/07/24 03:07:12;;;;;;;3.50;2.25;;;;;;;23.47;48.69;92906.63;5033409;28;20514;-91
2023/07/24 03:09:38;;;;;;;2.47;2.20;;;;;;;23.48;48.75;92907.38;5038743;28;20037;-92
2023/07/24 03:12:04;;;;;;;3.42;2.20;;;;;;;23.47;48.70;92894.88;5032332;28;20049;-90
2023/07/24 03:14:29;;;;;;;3.28;2.30;;;;;;;23.48;48.52;92901.84;5024070;28;20384;-91
2023/07/24 03:17:01;;;;;;;3.85;2.30;;;;;;;23.46;48.50;92898.91;5064474;28;20036;-91
2023/07/24 03:19:26;;;;;;;5.18;2.42;;;;;;;23.47;48.59;92901.13;5049980;28;20041;-92
2023/07/24 03:21:52;;;;;;;4.40;2.70;;;;;;;23.47;48.62;92903.88;5036026;28;20052;-92
2023/07/24 03:24:17;;;;;;;2.58;2.25;;;;;;;23.46;48.57;92902.41;5021047;28;20037;-92
2023/07/24 03:26:43;;;;;;;7.47;2.72;;;;;;;23.46;48.77;92894.13;5047223;28;20037;-91
2023/07/24 03:29:09;;;;;;;10.57;3.80;;;;;;;23.56;47.48;92889.53;5086016;28;20044;-91
2023/07/24 03:31:35;;;;;;;8.10;4.95;;;;;;;23.49;45.55;92895.03;5042502;28;20045;-91
2023/07/24 03:34:00;;;;;;;9.73;5.72;;;;;;;23.44;45.51;92890.47;5017213;28;20052;-90
2023/07/24 03:36:26;;;;;;;21.55;6.63;;;;;;;23.41;44.83;92894.31;5059809;28;20431;-91
2023/07/24 03:38:51;;;;;;;11.63;5.93;;;;;;;23.29;45.71;92893.28;5034485;28;20037;-91
2023/07/24 03:41:17;;;;;;;67.18;50.30;;;;;;;23.28;46.72;92891.78;5042550;28;20049;-93
2023/07/24 03:43:43;;;;;;;38.17;25.85;;;;;;;23.33;46.53;92896.38;5055376;28;20060;-92
2023/07/24 03:46:10;;;;;;;15.98;9.27;;;;;;;23.30;46.54;92886.47;5029261;28;20029;-91
2023/07/24 03:48:36;;;;;;;22.67;12.57;;;;;;;23.33;46.93;92894.38;5036452;28;20041;-89
2023/07/24 03:51:02;;;;;;;13.90;8.60;;;;;;;23.28;46.12;92895.28;5051890;28;20048;-93
2023/07/24 03:53:27;;;;;;;19.63;10.30;;;;;;;23.17;46.37;92890.88;5034361;28;20041;-93
2023/07/24 03:55:53;;;;;;;30.90;13.23;;;;;;;23.08;46.49;92883.19;5058911;28;20041;-93
2023/07/24 03:58:19;;;;;;;34.67;16.42;;;;;;;23.10;46.28;92888.16;5036599;28;20035;-93
2023/07/24 04:00:57;;;;;;;39.30;20.00;;;;;;;23.17;45.00;92885.38;5055041;28;20041;-93
2023/07/24 04:03:23;;;;;;;27.77;12.90;;;;;;;23.08;43.98;92893.50;5055410;28;20049;-93
2023/07/24 04:05:49;;;;;;;38.45;15.93;;;;;;;23.02;44.10;92890.94;5044700;28;20541;-91
2023/07/24 04:08:14;;;;;;;40.58;21.08;;;;;;;23.01;43.54;92891.47;5064656;28;20477;-94
2023/07/24 04:10:40;;;;;;;102.43;47.03;;;;;;;23.04;43.42;92898.63;5035226;28;20044;-93
2023/07/24 04:13:05;;;;;;;74.53;31.45;;;;;;;23.02;43.21;92901.22;5016126;28;20036;-93
2023/07/24 04:15:31;;;;;;;97.80;36.63;;;;;;;22.82;44.09;92905.66;5032056;28;20041;-92
2023/07/24 04:17:56;;;;;;;79.82;32.75;;;;;;;22.80;44.27;92908.22;5035165;28;20576;-92
2023/07/24 04:20:22;;;;;;;61.72;25.60;;;;;;;22.85;44.14;92894.25;5060360;28;20044;-92
2023/07/24 04:22:49;;;;;;;64.38;25.45;;;;;;;22.71;44.76;92900.50;5052240;28;20787;-92
2023/07/24 04:25:15;;;;;;;105.43;51.00;;;;;;;22.73;44.38;92901.41;5055274;28;20037;-90
2023/07/24 04:27:41;;;;;;;80.53;30.90;;;;;;;22.72;43.88;92902.69;5025013;28;20037;-91
2023/07/24 04:30:07;;;;;;;64.15;25.00;;;;;;;22.77;43.62;92896.28;5066877;28;20045;-91
2023/07/24 04:32:32;;;;;;;64.82;26.42;;;;;;;22.68;43.74;92899.56;5056601;28;20040;-91
2023/07/24 04:34:58;;;;;;;60.20;20.17;;;;;;;22.75;43.28;92901.56;5036250;28;20036;-91
2023/07/24 04:37:24;;;;;;;52.75;18.05;;;;;;;22.73;43.65;92893.16;5052774;28;20041;-92
2023/07/24 04:39:50;;;;;;;42.25;16.58;;;;;;;22.72;43.16;92897.19;5022078;28;20385;-92
2023/07/24 04:42:15;;;;;;;38.58;14.70;;;;;;;22.64;43.08;92901.94;5068006;28;20075;-92
2023/07/24 04:44:42;;;;;;;36.65;12.90;;;;;;;22.67;43.04;92900.84;5035977;28;20037;-91
2023/07/24 04:47:07;;;;;;;36.47;12.55;;;;;;;22.62;43.38;92906.53;5036800;28;20061;-90
2023/07/24 04:49:32;;;;;;;33.08;13.77;;;;;;;22.63;43.20;92894.97;5038880;28;20036;-89
2023/07/24 04:51:59;;;;;;;37.60;17.48;;;;;;;22.66;43.01;92899.38;5034687;28;20048;-91
2023/07/24 04:54:24;;;;;;;59.15;22.98;;;;;;;22.64;43.02;92896.44;4998122;28;20101;-88
2023/07/24 04:56:50;;;;;;;53.10;20.88;;;;;;;22.62;43.19;92906.53;4990854;28;20045;-89
2023/07/24 04:59:16;;;;;;;42.60;21.27;;;;;;;22.56;43.55;92903.97;4995627;28;20494;-89
2023/07/24 05:01:42;;;;;;;49.53;25.83;;;;;;;22.63;43.54;92913.53;5011710;28;20043;-89
2023/07/24 05:04:08;;;;;;;49.15;22.70;;;;;;;22.56;43.66;92909.47;5029903;28;20033;-90
2023/07/24 05:06:35;;;;;;;51.50;22.50;;;;;;;22.63;43.37;92916.28;5013363;28;20061;-89
2023/07/24 05:09:02;;;;;;;42.35;17.77;;;;;;;22.65;43.18;92911.69;5047512;28;20088;-92
2023/07/24 05:11:27;;;;;;;42.78;17.85;;;;;;;22.69;42.82;92917.56;5031249;28;20033;-92
2023/07/24 05:13:53;;;;;;;37.97;16.13;;;;;;;22.65;42.84;92908.19;5007924;28;20123;-91
2023/07/24 05:16:18;;;;;;;63.42;24.33;;;;;;;22.63;42.73;92913.53;4974977;28;20033;-92
2023/07/24 05:18:44;;;;;;;80.70;23.40;;;;;;;22.64;43.27;92906.72;4992568;28;20771;-93
2023/07/24 05:21:09;;;;;;;48.10;16.40;;;;;;;22.55;43.71;92905.97;4996644;28;20045;-90
2023/07/24 05:23:35;;;;;;;72.78;23.13;;;;;;;22.52;43.64;92900.84;5016004;28;20043;-91
2023/07/24 05:26:01;;;;;;;71.43;19.58;;;;;;;22.57;43.62;92908.19;5015930;28;20025;-91
2023/07/24 05:28:31;;;;;;;41.97;16.25;;;;;;;22.63;43.76;92908.00;5034116;28;20041;-92
2023/07/24 05:31:02;;;;;;;40.92;17.92;;;;;;;22.60;44.21;92909.09;5070168;28;20040;-93
2023/07/24 05:33:29;;;;;;;38.17;15.98;;;;;;;22.62;44.43;92915.53;5034945;28;20037;-94
2023/07/24 05:36:03;;;;;;;44.10;21.30;;;;;;;22.66;44.49;92909.66;5053603;28;20055;-93
2023/07/24 05:38:30;;;;;;;58.63;21.80;;;;;;;22.64;44.93;92912.25;5038657;28;20064;-95
2023/07/24 05:41:02;;;;;;;58.95;24.88;;;;;;;22.68;44.60;92920.88;5021832;28;20116;-95
2023/07/24 05:43:28;;;;;;;50.05;18.23;;;;;;;22.70;44.70;92927.31;5020050;23;20066;-91
2023/07/24 05:45:55;;;;;;;41.33;20.42;;;;;;;22.82;45.66;92920.16;4981120;28;20061;-95
2023/07/24 05:48:21;;;;;;;71.63;43.47;;;;;;;22.85;45.51;92924.56;4981482;28;20038;-94
2023/07/24 05:50:49;;;;;;;70.80;42.97;;;;;;;22.85;45.49;92916.31;4980706;28;20035;-93
2023/07/24 05:53:16;;;;;;;54.92;30.23;;;;;;;22.75;46.00;92929.13;4976256;28;20100;-93
2023/07/24 05:55:42;;;;;;;61.33;37.28;;;;;;;22.78;46.03;92928.06;4983079;28;20043;-94
2023/07/24 05:58:08;;;;;;;88.28;55.75;;;;;;;22.80;45.96;92914.47;4974973;28;20469;-92
2023/07/24 06:00:43;;;;;;;58.90;27.00;;;;;;;22.84;45.96;92906.56;4969076;28;20053;-94
2023/07/24 06:03:09;;;;;;;46.58;23.65;;;;;;;22.81;48.11;92915.19;4991164;28;20591;-92
2023/07/24 06:05:34;;;;;;;62.67;23.52;;;;;;;22.92;47.79;92906.56;4973498;28;20589;-92
2023/07/24 06:08:00;;;;;;;46.17;21.95;;;;;;;22.88;48.19;92915.19;4961220;28;20054;-93
2023/07/24 06:10:25;;;;;;;125.05;91.50;;;;;;;22.95;47.66;92963.31;4995736;28;20034;-88
2023/07/24 06:12:53;;;;;;;65.65;35.55;;;;;;;22.99;47.64;92974.00;4983104;28;20046;-91
2023/07/24 06:15:22;;;;;;;57.88;33.00;;;;;;;22.89;47.21;92933.22;4959241;28;20045;-93
2023/07/24 06:17:47;;;;;;;29.65;17.08;;;;;;;22.92;46.91;92927.88;4994720;28;20050;-92
2023/07/24 06:20:13;;;;;;;31.05;16.73;;;;;;;22.81;46.88;92946.25;4961858;28;20073;-92
2023/07/24 06:22:38;;;;;;;27.95;13.32;;;;;;;22.88;46.44;92944.78;4991752;28;20053;-91
2023/07/24 06:25:04;;;;;;;20.08;13.70;;;;;;;22.82;46.39;92919.44;4977409;28;20053;-93
2023/07/24 06:27:30;;;;;;;20.50;11.13;;;;;;;22.76;45.84;92913.31;4979565;28;20715;-93
2023/07/24 06:29:56;;;;;;;21.25;10.30;;;;;;;22.77;45.16;92907.28;4966403;28;20531;-92
2023/07/24 06:32:21;;;;;;;19.20;10.63;;;;;;;22.78;44.66;92903.25;4980924;28;20046;-91
2023/07/24 06:34:47;;;;;;;15.77;8.90;;;;;;;22.78;44.41;92905.28;4974783;28;20046;-93
2023/07/24 06:37:12;;;;;;;30.02;12.52;;;;;;;22.81;44.02;92906.94;4969766;28;20073;-91
2023/07/24 06:39:38;;;;;;;27.20;11.95;;;;;;;22.79;44.18;92909.50;5005539;28;20109;-91
2023/07/24 06:42:04;;;;;;;27.60;11.85;;;;;;;22.76;44.48;92897.53;4974409;28;20045;-92
2023/07/24 06:44:29;;;;;;;19.02;9.70;;;;;;;22.73;44.84;92893.16;4965691;28;20193;-93
2023/07/24 06:46:55;;;;;;;20.02;10.02;;;;;;;22.81;44.79;92882.13;4991236;28;20138;-93
2023/07/24 06:49:20;;;;;;;51.60;23.85;;;;;;;22.74;44.88;92867.03;4997358;28;20046;-92
2023/07/24 06:51:54;;;;;;;32.50;16.42;;;;;;;22.76;44.51;92860.97;4976373;28;20070;-93
2023/07/24 06:54:20;;;;;;;46.25;22.75;;;;;;;22.74;44.47;92852.53;4973788;28;20070;-91
2023/07/24 06:56:45;;;;;;;77.95;35.25;;;;;;;22.67;44.10;92858.78;4973033;28;20653;-91
2023/07/24 06:59:11;;;;;;;73.32;31.02;;;;;;;22.79;44.44;92870.91;4990400;28;20609;-92
2023/07/24 07:01:36;;;;;;;76.13;24.52;;;;;;;22.69;44.62;92878.25;4962637;28;20053;-93
2023/07/24 07:04:02;;;;;;;40.33;18.23;;;;;;;22.72;44.47;92880.66;4994536;28;20038;-92
2023/07/24 07:06:27;;;;;;;32.85;15.15;;;;;;;22.77;44.63;92887.25;4991317;28;20077;-93
2023/07/24 07:08:53;;;;;;;33.25;16.80;;;;;;;22.73;44.12;92884.16;4979940;28;20042;-93
2023/07/24 07:11:19;;;;;;;45.78;18.92;;;;;;;22.79;44.35;92879.19;5018353;28;20038;-92
2023/07/24 07:13:44;;;;;;;39.47;16.40;;;;;;;22.73;44.67;92875.88;4964112;28;20046;-93
2023/07/24 07:16:10;;;;;;;64.35;22.65;;;;;;;22.67;44.84;92883.59;4983536;28;20030;-93
2023/07/24 07:18:36;;;;;;;28.63;13.10;;;;;;;22.66;45.21;92866.31;4977123;28;20050;-94
2023/07/24 07:21:01;;;;;;;129.18;59.38;;;;;;;22.73;45.20;92851.06;4976134;28;20046;-93
2023/07/24 07:23:27;;;;;;;102.03;42.83;;;;;;;22.72;45.34;92875.16;4980411;28;20045;-91
2023/07/24 07:25:52;;;;;;;166.70;78.03;;;;;;;22.74;45.52;92863.53;4974931;28;20043;-93
2023/07/24 07:28:18;;;;;;;93.88;40.50;;;;;;;22.81;45.81;92858.06;4976093;28;20046;-93
2023/07/24 07:30:44;;;;;;;57.33;26.23;;;;;;;22.82;46.09;92845.75;4977571;28;20046;-93
2023/07/24 07:33:12;;;;;;;50.33;23.80;;;;;;;22.77;46.09;92846.66;4977127;28;20102;-93
2023/07/24 07:35:38;;;;;;;61.28;26.00;;;;;;;22.81;46.40;92849.78;4981392;28;20042;-93
2023/07/24 07:38:04;;;;;;;67.97;31.73;;;;;;;22.78;46.60;92845.38;4959970;28;20112;-92
2023/07/24 07:40:30;;;;;;;53.55;27.83;;;;;;;22.81;46.83;92849.06;5011160;28;20050;-93
2023/07/24 07:42:56;;;;;;;129.90;54.88;;;;;;;22.97;46.93;92844.97;4978182;28;20046;-93
2023/07/24 07:45:24;;;;;;;78.90;35.60;;;;;;;22.88;47.05;92840.06;4976953;28;21573;-94
2023/07/24 07:47:51;;;;;;;61.85;33.58;;;;;;;23.03;47.33;92837.25;4996580;28;20073;-93
2023/07/24 07:50:17;;;;;;;59.17;28.73;;;;;;;22.89;47.50;92836.00;4992779;28;20038;-94
2023/07/24 07:52:42;;;;;;;104.43;53.38;;;;;;;23.09;47.06;92839.81;4960397;28;20468;-93
2023/07/24 07:55:08;;;;;;;137.30;73.20;;;;;;;23.03;47.21;92839.28;4976735;28;20108;-93
2023/07/24 07:57:38;;;;;;;161.95;77.45;;;;;;;23.10;47.21;92825.47;4962054;28;20053;-94
2023/07/24 08:00:05;;;;;;;96.85;46.80;;;;;;;22.99;47.54;92811.34;4993029;28;20038;-92
2023/07/24 08:02:33;;;;;;;124.32;58.10;;;;;;;22.96;47.66;92807.69;4998072;28;20417;-91
2023/07/24 08:04:58;;;;;;;132.95;72.05;;;;;;;23.06;47.06;92799.56;4962448;28;20060;-93
2023/07/24 08:07:24;;;;;;;121.35;68.57;;;;;;;23.07;47.81;92790.03;4965062;28;20485;-94
2023/07/24 08:09:49;;;;;;;133.32;67.95;;;;;;;23.18;47.81;92789.59;4980041;28;20057;-94
2023/07/24 08:12:15;;;;;;;119.85;62.13;;;;;;;23.22;47.91;92784.44;4973967;28;20046;-93
2023/07/24 08:14:41;;;;;;;113.80;53.30;;;;;;;23.19;48.23;92780.78;4973457;28;20043;-93
2023/07/24 08:17:07;;;;;;;124.80;53.15;;;;;;;23.20;48.40;92792.53;4972693;28;20040;-93
2023/07/24 08:19:33;;;;;;;89.15;49.83;;;;;;;23.25;48.17;92795.09;5006510;28;20042;-93
2023/07/24 08:21:58;;;;;;;89.18;48.72;;;;;;;23.31;48.29;92778.34;4957698;28;20061;-94
2023/07/24 08:24:24;;;;;;;73.95;40.00;;;;;;;23.38;48.44;92783.09;4972153;28;20246;-93
2023/07/24 08:26:49;;;;;;;74.93;38.67;;;;;;;23.32;48.54;92774.28;4982402;28;20046;-95
2023/07/24 08:29:38;;;;;;;51.78;33.72;;;;;;;23.39;48.60;92773.50;4979130;28;20043;-95
2023/07/24 08:32:05;;;;;;;53.72;31.10;;;;;;;23.49;48.56;92776.41;4979241;28;20042;-94
2023/07/24 08:34:30;;;;;;;42.63;24.52;;;;;;;23.58;48.55;92773.09;4990313;28;20054;-94
2023/07/24 08:36:57;;;;;;;36.10;23.02;;;;;;;23.54;48.63;92775.50;5009497;28;20042;-95
2023/07/24 08:39:23;;;;;;;51.00;26.10;;;;;;;23.57;48.80;92777.88;4974051;28;20065;-94
2023/07/24 08:41:49;;;;;;;64.97;23.77;;;;;;;23.58;48.94;92779.34;4976182;28;20027;-89
2023/07/24 08:44:14;;;;;;;63.17;25.67;;;;;;;23.70;48.63;92776.88;4988042;28;20051;-91
2023/07/24 08:46:41;;;;;;;60.50;24.13;;;;;;;23.80;48.36;92790.81;4966929;28;20050;-90
2023/07/24 08:49:11;;;;;;;68.20;24.73;;;;;;;23.80;48.51;92780.50;4989660;28;20034;-91
2023/07/24 08:51:37;;;;;;;;;;;;;;;23.74;48.65;92777.22;4975304;28;20054;-92
2023/07/24 08:54:03;;;;;;;47.65;21.15;;;;;;;23.78;48.31;92765.81;4977327;28;19985;-91
2023/07/24 08:56:29;;;;;;;50.67;20.10;;;;;;;23.82;48.44;92758.56;4975138;28;20034;-91
2023/07/24 08:58:55;;;;;;;40.60;18.60;;;;;;;23.87;48.60;92759.66;4975108;28;20137;-93
2023/07/24 09:01:20;;;;;;;30.05;15.65;;;;;;;23.92;48.18;92753.91;4959088;28;20038;-92
2023/07/24 09:03:46;;;;;;;31.02;14.38;;;;;;;23.96;48.26;92755.56;4977151;28;20042;-92
2023/07/24 09:06:13;;;;;;;32.95;13.00;;;;;;;23.95;48.07;92754.81;4977163;28;20058;-91
2023/07/24 09:08:40;;;;;;;35.13;14.43;;;;;;;24.03;48.12;92763.78;4976683;28;20561;-93
2023/07/24 09:11:06;;;;;;;29.80;14.85;;;;;;;24.03;48.43;92765.81;4985509;28;20054;-90
2023/07/24 09:13:43;;;;;;;60.65;33.30;;;;;;;24.04;48.19;92756.94;4989771;28;20050;-95
2023/07/24 09:16:23;;;;;;;64.05;32.28;;;;;;;24.03;48.31;92758.28;4956628;28;20067;-92
2023/07/24 09:18:51;;;;;;;61.80;33.85;;;;;;;24.09;48.45;92758.03;4972423;28;20046;-93
2023/07/24 09:21:27;;;;;;;72.82;34.65;;;;;;;24.05;48.26;92763.94;4977344;28;20050;-93
2023/07/24 09:24:19;;;;;;;58.50;28.02;;;;;;;24.09;48.26;92761.53;4976761;28;20441;-94
2023/07/24 09:26:50;;;;;;;69.15;29.60;;;;;;;24.08;48.52;92756.56;4983388;28;20046;-93
2023/07/24 09:29:16;;;;;;;63.25;29.77;;;;;;;24.13;48.57;92752.84;4982942;28;20129;-93
2023/07/24 09:31:43;;;;;;;50.60;28.40;;;;;;;24.21;48.03;92748.75;4973825;28;20066;-93
2023/07/24 09:34:16;;;;;;;61.95;28.92;;;;;;;24.20;48.11;92757.59;4977383;28;20109;-93
2023/07/24 09:36:42;;;;;;;47.00;25.60;;;;;;;24.19;48.16;92751.31;4994754;28;20050;-93
2023/07/24 09:39:10;;;;;;;46.08;22.30;;;;;;;24.22;48.33;92752.22;4990323;28;20034;-92
2023/07/24 09:41:36;;;;;;;41.08;22.45;;;;;;;24.26;48.23;92744.28;4991046;28;20039;-92
2023/07/24 09:44:01;;;;;;;43.85;18.88;;;;;;;24.28;48.44;92744.44;4989499;28;20050;-92
2023/07/24 09:46:28;;;;;;;46.63;21.23;;;;;;;24.28;48.54;92747.22;4992290;28;20050;-93
2023/07/24 09:48:56;;;;;;;41.15;21.35;;;;;;;24.29;48.47;92732.09;4979087;28;20042;-94
2023/07/24 09:51:22;;;;;;;50.35;20.25;;;;;;;24.33;48.59;92732.44;4978575;28;20042;-93
2023/07/24 09:53:56;;;;;;;35.72;14.80;;;;;;;24.34;48.64;92739.44;4970519;28;20089;-92
2023/07/24 09:56:21;;;;;;;26.15;13.80;;;;;;;24.36;49.83;92749.91;4973234;28;20047;-93
2023/07/24 09:58:49;;;;;;;25.35;12.75;;;;;;;24.35;50.36;92742.94;4974622;28;20077;-90
2023/07/24 10:01:14;;;;;;;24.15;10.88;;;;;;;24.36;50.76;92750.66;4959353;28;20056;-91
2023/07/24 10:03:48;;;;;;;21.15;10.43;;;;;;;24.34;50.89;92742.19;4972595;28;20039;-91
2023/07/24 10:06:14;;;;;;;19.00;8.70;;;;;;;24.35;51.02;92735.38;4984807;28;20094;-91
2023/07/24 10:08:41;;;;;;;15.45;8.32;;;;;;;24.35;51.25;92734.63;4984176;28;20149;-92
2023/07/24 10:11:11;;;;;;;16.02;8.55;;;;;;;24.34;51.10;92725.63;4979877;28;20123;-91
2023/07/24 10:13:39;;;;;;;11.05;7.45;;;;;;;24.34;51.14;92717.34;5007192;28;20042;-92
2023/07/24 10:16:06;;;;;;;11.38;8.00;;;;;;;24.36;51.18;92716.78;4993662;28;20042;-92
2023/07/24 10:18:52;;;;;;;15.77;7.35;;;;;;;24.40;51.25;92723.38;4970090;28;20038;-91
2023/07/24 10:21:26;;;;;;;15.23;8.18;;;;;;;24.40;51.31;92711.56;4974643;28;20433;-92
2023/07/24 10:23:54;;;;;;;12.32;7.53;;;;;;;24.38;50.36;92706.63;4939790;28;20056;-93
2023/07/24 10:26:27;;;;;;;13.40;7.55;;;;;;;24.40;50.48;92706.78;4964988;28;20069;-91
2023/07/24 10:29:01;;;;;;;12.45;7.13;;;;;;;24.40;49.90;92708.81;4970827;28;20067;-92
2023/07/24 10:31:38;;;;;;;14.45;7.32;;;;;;;24.39;49.46;92708.09;4976742;28;20047;-92
2023/07/24 10:34:05;;;;;;;10.63;7.00;;;;;;;24.43;49.50;92702.91;4955023;28;20051;-91
2023/07/24 10:36:36;;;;;;;12.23;6.50;;;;;;;24.41;48.60;92713.03;4947969;28;20062;-92
2023/07/24 10:39:12;;;;;;;10.65;6.57;;;;;;;24.41;48.03;92713.78;4981774;28;20053;-93
2023/07/24 10:41:39;;;;;;;11.13;7.13;;;;;;;24.41;47.91;92707.53;4957434;28;20038;-93
2023/07/24 10:44:05;;;;;;;10.82;6.68;;;;;;;24.38;48.32;92714.19;4961209;28;20509;-93
2023/07/24 10:46:38;;;;;;;37.80;21.10;;;;;;;24.37;47.76;92738.31;4927429;29;20057;-92
2023/07/24 10:49:03;;;;;;;33.38;18.50;;;;;;;24.35;47.28;92732.63;4949154;28;20042;-91
2023/07/24 10:51:29;;;;;;;39.20;24.98;;;;;;;24.31;47.38;92735.03;4993323;28;20042;-91
2023/07/24 10:53:55;;;;;;;24.75;16.15;;;;;;;24.35;47.88;92746.44;4981105;28;20038;-92
2023/07/24 10:56:20;;;;;;;28.60;17.52;;;;;;;24.36;47.90;92745.13;4952708;28;20050;-92
2023/07/24 10:58:47;;;;;;;22.85;14.15;;;;;;;24.32;47.83;92744.78;5001379;28;20042;-92
2023/07/24 11:01:14;;;;;;;19.73;11.73;;;;;;;24.28;48.04;92747.22;4986490;28;20050;-93
2023/07/24 11:03:40;;;;;;;27.35;13.90;;;;;;;24.34;47.45;92738.69;4984421;28;20544;-93
2023/07/24 11:06:14;;;;;;;19.98;11.20;;;;;;;24.23;47.59;92732.34;4997452;28;20039;-92
2023/07/24 11:08:40;;;;;;;29.85;12.88;;;;;;;24.23;47.42;92726.06;4965694;28;20049;-92
2023/07/24 11:11:07;;;;;;;33.50;14.48;;;;;;;24.24;47.75;92728.31;4968304;28;20050;-93
2023/07/24 11:13:35;;;;;;;22.58;13.00;;;;;;;24.29;47.48;92720.31;4963776;28;20077;-94
2023/07/24 11:16:04;;;;;;;17.20;10.20;;;;;;;24.24;47.13;92717.25;4972330;28;20117;-94
2023/07/24 11:18:32;;;;;;;28.05;11.75;;;;;;;24.24;47.48;92711.72;4939870;28;20073;-96
2023/07/24 11:20:59;;;;;;;14.95;9.10;;;;;;;24.26;46.85;92716.66;4940915;28;20107;-93